Time;durP1;ratioP1;P1;durP2;ratioP2;P2;SDS_P1;SDS_P2;PMS_P1;PMS_P2;Temp;Humidity;BMP_temperature;BMP_pressure;BME280_temperature;BME280_humidity;BME280_pressure;Samples;Min_cycle;Max_cycle;Signal;HPM_P1;HPM_P2
2022/08/06 00:02:26;;;;;;;6.53;5.97;;;;;;;17.22;100.00;97372.25;4983890;28;20210;-66
2022/08/06 00:04:59;;;;;;;6.00;5.60;;;;;;;17.17;100.00;97362.22;4971582;28;20233;-66
2022/08/06 00:07:29;;;;;;;6.03;5.53;;;;;;;17.10;100.00;97376.72;4968247;28;20232;-64
2022/08/06 00:10:17;;;;;;;5.27;4.87;;;;;;;16.95;100.00;97364.47;4983655;28;20201;-66
2022/08/06 00:12:47;;;;;;;4.77;4.40;;;;;;;17.05;100.00;97383.53;4984882;28;20304;-65
2022/08/06 00:15:18;;;;;;;6.60;5.87;;;;;;;16.89;100.00;97394.78;4973177;28;20229;-66
2022/08/06 00:18:07;;;;;;;5.63;5.10;;;;;;;17.01;100.00;97410.97;4987333;28;20201;-65
2022/08/06 00:20:39;;;;;;;6.20;5.20;;;;;;;16.88;100.00;97402.00;4968829;28;20966;-63
2022/08/06 00:23:10;;;;;;;5.53;5.03;;;;;;;16.88;100.00;97388.59;4944067;28;20280;-64
2022/08/06 00:25:46;;;;;;;5.50;4.87;;;;;;;16.88;100.00;97382.47;4984182;28;20445;-66
2022/08/06 00:28:20;;;;;;;5.30;4.80;;;;;;;16.89;100.00;97390.25;4987515;28;20316;-68
2022/08/06 00:31:00;;;;;;;6.40;4.90;;;;;;;16.87;100.00;97403.03;4963266;28;20486;-68
2022/08/06 00:33:38;;;;;;;6.83;5.43;;;;;;;16.90;100.00;97407.94;4982936;28;20208;-67
2022/08/06 00:36:24;;;;;;;6.53;5.23;;;;;;;16.97;100.00;97412.41;4985274;28;20232;-68
2022/08/06 00:38:56;;;;;;;5.67;5.17;;;;;;;16.69;100.00;97414.50;4938908;28;20434;-67
2022/08/06 00:41:30;;;;;;;6.77;4.53;;;;;;;16.66;100.00;97411.41;4985598;28;20236;-68
2022/08/06 00:44:10;;;;;;;5.43;4.60;;;;;;;16.56;100.00;97409.25;4987787;28;20213;-66
2022/08/06 00:46:39;;;;;;;4.53;4.23;;;;;;;16.57;100.00;97419.72;4972145;28;20823;-68
2022/08/06 00:49:08;;;;;;;4.70;4.30;;;;;;;16.52;100.00;97424.09;4986937;28;20217;-68
2022/08/06 00:51:39;;;;;;;4.77;4.27;;;;;;;16.47;100.00;97414.03;4967736;28;20464;-64
2022/08/06 00:54:19;;;;;;;5.10;4.63;;;;;;;16.28;100.00;97403.25;4939974;28;20351;-68
2022/08/06 00:57:05;;;;;;;4.20;3.90;;;;;;;16.22;100.00;97436.19;4984527;28;20293;-68
2022/08/06 00:59:39;;;;;;;4.70;4.10;;;;;;;16.08;100.00;97450.66;4983221;28;20196;-67
2022/08/06 01:02:10;;;;;;;4.33;4.03;;;;;;;16.05;100.00;97442.03;4973867;28;20217;-66
2022/08/06 01:04:42;;;;;;;5.00;4.50;;;;;;;15.99;100.00;97442.06;4984367;28;20229;-68
2022/08/06 01:07:12;;;;;;;4.53;4.17;;;;;;;15.89;100.00;97442.50;4963541;28;20219;-66
2022/08/06 01:09:42;;;;;;;4.57;4.17;;;;;;;15.61;100.00;97441.75;4916825;28;20855;-67
2022/08/06 01:12:26;;;;;;;3.93;3.50;;;;;;;15.54;100.00;97437.47;4985714;28;20207;-67
2022/08/06 01:15:02;;;;;;;3.63;3.40;;;;;;;15.43;100.00;97452.28;4985490;28;20218;-68
2022/08/06 01:17:38;;;;;;;4.10;3.90;;;;;;;15.35;100.00;97461.31;4970841;28;20206;-64
2022/08/06 01:20:15;;;;;;;6.13;3.80;;;;;;;15.36;100.00;97457.63;4985896;28;20232;-68
2022/08/06 01:23:16;;;;;;;5.23;3.97;;;;;;;15.19;100.00;97462.56;4958089;28;20701;-65
2022/08/06 01:26:15;;;;;;;3.80;3.60;;;;;;;15.24;100.00;97470.78;4931257;28;20251;-66
2022/08/06 01:28:52;;;;;;;4.03;3.80;;;;;;;15.14;100.00;97465.06;4981681;28;20287;-65
2022/08/06 01:31:23;;;;;;;4.27;4.07;;;;;;;15.05;100.00;97483.94;4983272;28;20431;-68
2022/08/06 01:33:59;;;;;;;4.83;3.87;;;;;;;15.19;100.00;97475.91;4960718;28;20369;-65
2022/08/06 01:36:32;;;;;;;4.60;4.20;;;;;;;15.16;100.00;97487.84;4985644;28;20638;-67
2022/08/06 01:39:02;;;;;;;4.57;4.27;;;;;;;15.12;100.00;97483.91;4961284;28;20563;-64
2022/08/06 01:41:40;;;;;;;6.03;4.07;;;;;;;15.18;100.00;97480.47;4936380;28;20372;-66
2022/08/06 01:44:30;;;;;;;4.50;4.20;;;;;;;15.13;100.00;97474.88;4982311;28;20713;-66
2022/08/06 01:47:02;;;;;;;4.40;4.10;;;;;;;15.14;100.00;97476.53;4985123;28;20204;-64
2022/08/06 01:49:44;;;;;;;4.63;4.27;;;;;;;15.14;100.00;97473.06;4963911;28;20234;-66
2022/08/06 01:52:32;;;;;;;5.07;4.67;;;;;;;15.29;100.00;97465.63;4984600;28;20213;-64
2022/08/06 01:55:03;;;;;;;4.97;4.50;;;;;;;15.27;100.00;97454.34;4959230;28;20225;-64
2022/08/06 01:57:33;;;;;;;5.60;5.10;;;;;;;15.37;100.00;97450.47;4935664;28;20216;-64
2022/08/06 02:00:22;;;;;;;5.07;4.73;;;;;;;15.26;100.00;97454.56;4930445;28;20582;-64
2022/08/06 02:02:57;;;;;;;6.13;4.43;;;;;;;15.26;100.00;97457.25;4985816;28;20685;-67
2022/08/06 02:05:26;;;;;;;5.37;4.47;;;;;;;15.16;100.00;97452.31;4978476;28;20398;-66
2022/08/06 02:07:59;;;;;;;5.07;4.60;;;;;;;15.15;100.00;97454.19;4983931;28;20691;-65
2022/08/06 02:10:49;;;;;;;5.43;5.03;;;;;;;15.22;100.00;97454.16;4985124;28;20209;-67
2022/08/06 02:13:18;;;;;;;5.47;4.97;;;;;;;15.13;100.00;97466.88;4983741;28;20954;-64
2022/08/06 02:15:49;;;;;;;5.33;4.93;;;;;;;15.15;100.00;97466.69;4935967;28;20743;-67
2022/08/06 02:18:28;;;;;;;5.67;5.17;;;;;;;15.17;100.00;97465.47;4977556;28;20197;-67
2022/08/06 02:21:05;;;;;;;5.97;5.43;;;;;;;15.22;100.00;97462.16;4985238;28;20216;-67
2022/08/06 02:23:46;;;;;;;5.33;4.90;;;;;;;15.27;100.00;97473.03;4984007;28;20307;-67
2022/08/06 02:26:18;;;;;;;6.10;5.60;;;;;;;15.29;100.00;97480.84;4983179;28;20508;-64
2022/08/06 02:28:48;;;;;;;6.13;5.73;;;;;;;15.04;100.00;97482.31;4984763;28;20333;-68
2022/08/06 02:31:18;;;;;;;5.57;5.20;;;;;;;14.91;100.00;97479.59;4929489;28;20334;-65
2022/08/06 02:33:49;;;;;;;5.60;5.30;;;;;;;14.80;100.00;97470.41;4987088;28;20210;-67
2022/08/06 02:36:40;;;;;;;5.40;5.00;;;;;;;14.90;100.00;97472.63;4951250;28;20271;-67
2022/08/06 02:39:23;;;;;;;5.43;5.03;;;;;;;14.85;100.00;97467.09;4983442;28;20217;-67
2022/08/06 02:42:17;;;;;;;5.30;4.90;;;;;;;14.79;100.00;97454.59;4982164;28;20718;-65
2022/08/06 02:44:48;;;;;;;5.07;4.73;;;;;;;14.85;100.00;97464.44;4945838;28;20228;-67
2022/08/06 02:47:22;;;;;;;5.80;5.23;;;;;;;14.84;100.00;97463.63;4900821;28;20216;-66
2022/08/06 02:50:14;;;;;;;5.00;4.70;;;;;;;14.79;100.00;97478.59;4959967;28;20230;-66
2022/08/06 02:52:45;;;;;;;4.97;4.67;;;;;;;14.75;100.00;97480.81;4965841;28;20623;-67
2022/08/06 02:55:28;;;;;;;4.90;4.47;;;;;;;14.74;100.00;97457.84;4982941;28;20228;-66
2022/08/06 02:58:09;;;;;;;6.20;4.30;;;;;;;14.77;100.00;97476.09;4991351;28;20646;-67
2022/08/06 03:00:45;;;;;;;4.67;4.37;;;;;;;14.87;100.00;97465.03;4989519;28;20208;-67
2022/08/06 03:03:20;;;;;;;4.63;4.30;;;;;;;14.85;100.00;97462.59;4933870;28;20220;-65
2022/08/06 03:06:03;;;;;;;4.50;4.30;;;;;;;14.79;100.00;97463.41;4962895;28;20605;-67
2022/08/06 03:08:35;;;;;;;4.97;4.67;;;;;;;14.77;100.00;97486.78;4962881;28;20434;-66
2022/08/06 03:11:05;;;;;;;4.77;4.47;;;;;;;14.78;100.00;97493.78;4986525;28;20208;-65
2022/08/06 03:13:33;;;;;;;4.97;4.57;;;;;;;14.76;100.00;97491.31;4984125;28;20854;-66
2022/08/06 03:16:03;;;;;;;4.53;4.33;;;;;;;14.81;100.00;97495.22;4986919;28;20233;-67
2022/08/06 03:18:52;;;;;;;4.90;4.50;;;;;;;14.67;100.00;97505.84;4977756;28;20225;-66
2022/08/06 03:21:41;;;;;;;4.60;4.30;;;;;;;14.68;100.00;97514.63;4965940;28;20620;-68
2022/08/06 03:24:20;;;;;;;5.07;4.60;;;;;;;14.64;100.00;97500.06;4943459;28;20219;-67
2022/08/06 03:26:48;;;;;;;5.10;4.70;;;;;;;14.66;100.00;97484.69;4986420;28;20220;-67
2022/08/06 03:29:17;;;;;;;4.77;4.47;;;;;;;14.57;100.00;97481.38;4989260;28;20229;-67
2022/08/06 03:31:49;;;;;;;5.30;4.90;;;;;;;14.54;100.00;97497.78;4930953;28;20905;-67
2022/08/06 03:34:27;;;;;;;5.07;4.67;;;;;;;14.51;100.00;97520.34;4956424;28;20204;-65
2022/08/06 03:36:57;;;;;;;5.47;4.93;;;;;;;14.61;100.00;97538.66;4986949;28;20305;-67
2022/08/06 03:39:28;;;;;;;5.23;4.73;;;;;;;14.51;100.00;97541.69;4923095;28;20290;-66
2022/08/06 03:41:57;;;;;;;5.00;4.70;;;;;;;14.52;100.00;97532.66;4987089;28;20197;-68
2022/08/06 03:44:36;;;;;;;5.47;5.07;;;;;;;14.62;100.00;97540.28;4985452;28;20414;-67
2022/08/06 03:47:08;;;;;;;5.47;5.17;;;;;;;14.68;100.00;97533.31;4888466;28;20217;-64
2022/08/06 03:49:46;;;;;;;6.03;5.60;;;;;;;14.58;100.00;97539.03;4986942;28;20221;-66
2022/08/06 03:52:27;;;;;;;5.60;5.20;;;;;;;14.63;100.00;97525.94;4981537;28;20523;-66
2022/08/06 03:54:58;;;;;;;6.33;5.40;;;;;;;14.62;100.00;97533.09;4970522;28;20586;-65
2022/08/06 03:57:35;;;;;;;5.57;5.17;;;;;;;14.66;100.00;97538.84;4979116;28;20219;-66
2022/08/06 04:00:10;;;;;;;5.43;4.97;;;;;;;14.59;100.00;97551.34;4987180;28;21742;-64
2022/08/06 04:02:45;;;;;;;5.97;5.47;;;;;;;14.59;100.00;97562.03;4936774;28;20271;-66
2022/08/06 04:05:19;;;;;;;5.60;5.10;;;;;;;14.54;100.00;97561.78;4986646;28;20224;-67
2022/08/06 04:07:51;;;;;;;5.63;5.27;;;;;;;14.54;100.00;97546.63;4929286;28;20557;-66
2022/08/06 04:10:24;;;;;;;6.67;5.23;;;;;;;14.62;100.00;97554.44;4965807;28;20230;-65
2022/08/06 04:13:03;;;;;;;7.13;6.63;;;;;;;14.52;100.00;97554.00;4983562;28;20555;-67
2022/08/06 04:15:53;;;;;;;8.03;7.43;;;;;;;14.52;100.00;97554.00;4979424;28;20229;-65
2022/08/06 04:18:25;;;;;;;9.43;8.53;;;;;;;14.52;100.00;97546.00;4941817;28;20210;-64
2022/08/06 04:20:59;;;;;;;9.80;9.00;;;;;;;14.53;100.00;97557.47;4987876;28;20236;-65
2022/08/06 04:23:47;;;;;;;10.43;9.53;;;;;;;14.53;100.00;97560.97;4938619;28;20930;-66
2022/08/06 04:26:17;;;;;;;9.77;9.07;;;;;;;14.56;100.00;97567.72;4984222;28;20724;-64
2022/08/06 04:28:48;;;;;;;10.17;9.47;;;;;;;14.57;100.00;97569.38;4986585;28;20991;-67
2022/08/06 04:31:26;;;;;;;10.67;9.77;;;;;;;14.53;100.00;97566.31;4952905;28;20351;-64
2022/08/06 04:34:18;;;;;;;10.70;9.80;;;;;;;14.59;100.00;97588.69;4944982;28;20229;-66
2022/08/06 04:36:48;;;;;;;10.23;9.43;;;;;;;14.59;100.00;97588.69;4942552;28;20214;-66
2022/08/06 04:39:22;;;;;;;10.27;9.57;;;;;;;14.56;100.00;97581.91;4903917;28;20321;-63
2022/08/06 04:42:06;;;;;;;11.50;10.60;;;;;;;14.62;100.00;97596.28;4965626;28;20237;-68
2022/08/06 04:44:36;;;;;;;10.27;9.53;;;;;;;14.61;100.00;97592.78;4943835;28;21205;-68
2022/08/06 04:47:11;;;;;;;10.30;9.50;;;;;;;14.65;100.00;97590.56;4970458;28;20240;-66
2022/08/06 04:49:46;;;;;;;11.00;10.13;;;;;;;14.73;100.00;97603.72;4946731;28;20229;-67
2022/08/06 04:52:36;;;;;;;11.13;10.17;;;;;;;14.75;100.00;97593.69;4905653;28;20334;-69
2022/08/06 04:55:20;;;;;;;10.83;9.93;;;;;;;14.76;100.00;97598.00;4926930;28;20221;-67
2022/08/06 04:58:00;;;;;;;11.07;10.23;;;;;;;14.73;100.00;97594.91;4967231;28;20221;-70
2022/08/06 05:00:37;;;;;;;11.40;10.47;;;;;;;14.89;100.00;97586.53;4930812;28;20443;-66
2022/08/06 05:03:25;;;;;;;11.73;10.57;;;;;;;14.81;100.00;97592.06;4962568;28;20416;-67
2022/08/06 05:06:19;;;;;;;11.80;10.93;;;;;;;14.82;100.00;97596.38;4945562;28;20229;-66
2022/08/06 05:08:54;;;;;;;11.27;10.27;;;;;;;14.93;100.00;97605.63;4952345;28;20217;-67
2022/08/06 05:11:27;;;;;;;11.87;10.83;;;;;;;15.01;100.00;97602.78;4920245;28;20417;-69
2022/08/06 05:13:59;;;;;;;10.83;10.03;;;;;;;15.06;100.00;97596.81;4966018;28;20210;-69
2022/08/06 05:16:28;;;;;;;12.63;11.63;;;;;;;15.07;100.00;97597.66;4946898;28;20579;-69
2022/08/06 05:18:59;;;;;;;11.47;10.57;;;;;;;15.11;100.00;97604.22;4968723;28;20292;-68
2022/08/06 05:21:48;;;;;;;12.40;11.23;;;;;;;14.95;100.00;97624.91;4966406;28;20216;-69
2022/08/06 05:24:38;;;;;;;11.90;11.00;;;;;;;15.08;100.00;97621.47;4949611;28;20249;-69
2022/08/06 05:27:26;;;;;;;12.87;11.80;;;;;;;15.09;100.00;97623.09;4920596;28;20218;-65
2022/08/06 05:30:15;;;;;;;12.67;11.47;;;;;;;15.25;100.00;97629.09;4953580;28;20272;-65
2022/08/06 05:32:44;;;;;;;11.63;10.63;;;;;;;15.29;100.00;97625.81;4954160;28;20206;-66
2022/08/06 05:35:12;;;;;;;12.87;11.77;;;;;;;15.23;100.00;97629.28;4935332;28;20311;-65
2022/08/06 05:37:45;;;;;;;13.30;12.00;;;;;;;15.25;100.00;97637.91;4969966;28;20220;-67
2022/08/06 05:40:35;;;;;;;13.77;12.57;;;;;;;15.25;100.00;97645.13;4950625;28;20268;-67
2022/08/06 05:43:23;;;;;;;13.53;12.43;;;;;;;15.24;100.00;97654.97;4918018;28;24795;-67
2022/08/06 05:46:13;;;;;;;14.03;12.63;;;;;;;15.32;100.00;97667.31;4958652;28;20230;-64
2022/08/06 05:49:01;;;;;;;13.13;12.03;;;;;;;15.31;100.00;97665.66;4950307;28;20209;-66
2022/08/06 05:51:49;;;;;;;13.57;12.43;;;;;;;15.32;100.00;97656.63;4951044;28;20229;-67
2022/08/06 05:54:23;;;;;;;14.83;13.53;;;;;;;15.31;100.00;97646.97;4950457;28;20913;-65
2022/08/06 05:56:59;;;;;;;14.27;13.20;;;;;;;15.46;100.00;97644.13;4946551;28;20288;-67
2022/08/06 05:59:35;;;;;;;15.30;14.05;;;;;;;15.60;100.00;97640.41;4919554;28;21177;-64
2022/08/06 06:02:24;;;;;;;16.03;14.57;;;;;;;15.71;100.00;97646.16;4946993;28;20497;-66
2022/08/06 06:04:54;;;;;;;15.67;14.37;;;;;;;15.77;100.00;97640.81;4955585;28;20264;-66
2022/08/06 06:07:42;;;;;;;14.83;13.63;;;;;;;15.88;100.00;97663.47;4952374;28;20702;-64
2022/08/06 06:10:33;;;;;;;16.97;15.47;;;;;;;15.99;100.00;97658.50;4945165;28;21595;-67
2022/08/06 06:13:03;;;;;;;17.03;15.33;;;;;;;16.05;100.00;97663.88;4967369;28;20209;-64
2022/08/06 06:15:57;;;;;;;15.80;14.40;;;;;;;16.15;100.00;97671.47;4916352;28;20221;-66
2022/08/06 06:18:41;;;;;;;17.00;15.70;;;;;;;16.53;100.00;97674.47;4962247;28;20210;-64
2022/08/06 06:21:20;;;;;;;17.20;15.70;;;;;;;16.63;100.00;97674.84;4967409;28;20228;-67
2022/08/06 06:24:07;;;;;;;16.40;15.03;;;;;;;16.66;100.00;97674.41;4960700;28;20210;-66
2022/08/06 06:26:40;;;;;;;16.50;15.03;;;;;;;16.87;100.00;97680.53;4951739;28;20306;-64
2022/08/06 06:29:15;;;;;;;15.90;14.60;;;;;;;16.63;100.00;97677.53;4969464;28;20206;-67
2022/08/06 06:32:11;;;;;;;16.23;14.83;;;;;;;16.54;100.00;97676.13;4965779;28;20248;-66
2022/08/06 06:35:04;;;;;;;15.20;13.90;;;;;;;16.29;100.00;97677.63;4965813;28;20320;-65
2022/08/06 06:37:40;;;;;;;16.67;15.33;;;;;;;16.10;100.00;97684.63;4964933;28;20209;-65
2022/08/06 06:40:18;;;;;;;15.67;14.17;;;;;;;16.22;100.00;97684.81;4963610;28;20205;-66
2022/08/06 06:42:54;;;;;;;14.63;13.43;;;;;;;16.39;100.00;97695.06;4947570;28;20960;-66
2022/08/06 06:45:29;;;;;;;13.97;12.87;;;;;;;16.58;100.00;97701.41;4926942;28;20225;-64
2022/08/06 06:48:20;;;;;;;14.00;12.83;;;;;;;16.48;100.00;97702.69;4966876;28;20226;-67
2022/08/06 06:50:52;;;;;;;13.93;12.83;;;;;;;16.32;100.00;97700.44;4966889;28;20988;-66
2022/08/06 06:53:21;;;;;;;11.73;10.70;;;;;;;16.00;100.00;97709.09;4967203;28;20293;-63
2022/08/06 06:55:53;;;;;;;11.90;10.90;;;;;;;15.93;100.00;97707.44;4968147;28;20746;-65
2022/08/06 06:58:33;;;;;;;10.67;9.97;;;;;;;15.88;100.00;97706.22;4957106;28;20610;-66
2022/08/06 07:01:05;;;;;;;10.57;9.67;;;;;;;16.18;100.00;97712.97;4918345;28;20758;-67
2022/08/06 07:03:54;;;;;;;10.17;9.47;;;;;;;16.02;100.00;97714.22;4938546;28;20564;-63
2022/08/06 07:06:23;;;;;;;10.00;9.13;;;;;;;15.95;100.00;97711.56;4966760;28;20283;-65
2022/08/06 07:09:11;;;;;;;10.67;9.77;;;;;;;16.18;100.00;97716.50;4950443;28;20214;-62
2022/08/06 07:11:59;;;;;;;9.20;8.60;;;;;;;16.17;100.00;97711.34;4965898;28;20226;-66
2022/08/06 07:14:31;;;;;;;7.87;7.27;;;;;;;16.20;100.00;97724.28;4950661;28;20675;-69
2022/08/06 07:17:03;;;;;;;7.53;6.90;;;;;;;16.18;100.00;97727.19;4899423;28;20209;-64
2022/08/06 07:19:55;;;;;;;6.83;6.33;;;;;;;16.06;100.00;97735.00;4968074;28;20422;-68
2022/08/06 07:22:24;;;;;;;6.80;6.30;;;;;;;15.95;100.00;97738.28;4963273;28;20200;-66
2022/08/06 07:24:55;;;;;;;5.77;5.27;;;;;;;15.76;100.00;97727.34;4949578;28;20581;-68
2022/08/06 07:27:28;;;;;;;6.07;5.50;;;;;;;15.71;100.00;97742.31;4964630;28;20198;-65
2022/08/06 07:30:11;;;;;;;6.40;5.93;;;;;;;15.65;100.00;97737.81;4947105;28;20244;-63
2022/08/06 07:32:43;;;;;;;6.27;5.77;;;;;;;15.57;100.00;97739.66;4916651;28;20232;-66
2022/08/06 07:35:17;;;;;;;5.13;4.70;;;;;;;15.54;100.00;97732.03;4968095;28;20259;-66
2022/08/06 07:37:50;;;;;;;5.00;4.70;;;;;;;15.57;100.00;97738.84;4966253;28;20883;-66
2022/08/06 07:40:24;;;;;;;4.97;4.67;;;;;;;15.62;100.00;97750.53;4955697;28;20687;-65
2022/08/06 07:43:01;;;;;;;4.67;4.37;;;;;;;15.62;100.00;97750.53;4954054;28;21057;-67
2022/08/06 07:45:36;;;;;;;5.33;4.83;;;;;;;15.89;100.00;97755.13;4925131;28;20238;-66
2022/08/06 07:48:25;;;;;;;4.60;4.30;;;;;;;16.19;100.00;97758.25;4968566;28;20582;-62
2022/08/06 07:50:54;;;;;;;4.50;4.30;;;;;;;16.46;100.00;97754.72;4966755;28;20206;-63
2022/08/06 07:53:23;;;;;;;4.77;4.43;;;;;;;16.71;100.00;97754.88;4949078;28;20280;-63
2022/08/06 07:56:11;;;;;;;5.10;4.80;;;;;;;16.58;100.00;97758.38;4948658;28;20237;-64
2022/08/06 07:58:43;;;;;;;4.00;3.80;;;;;;;16.73;100.00;97760.84;4955135;28;20235;-68
2022/08/06 08:01:15;;;;;;;5.03;4.63;;;;;;;16.62;100.00;97759.63;4944048;28;20619;-65
2022/08/06 08:07:00;;;;;;;4.63;4.37;;;;;;;16.59;100.00;97764.56;4947660;28;20219;-68
2022/08/06 08:09:30;;;;;;;5.33;4.83;;;;;;;16.56;100.00;97765.81;4963807;28;20300;-66
2022/08/06 08:12:20;;;;;;;5.00;4.60;;;;;;;16.68;100.00;97762.50;4967587;28;20880;-66
2022/08/06 08:15:03;;;;;;;6.00;5.50;;;;;;;16.66;100.00;97757.34;4955276;28;20230;-66
2022/08/06 08:17:44;;;;;;;4.67;4.37;;;;;;;16.72;100.00;97761.88;4913966;28;24884;-68
2022/08/06 08:20:14;;;;;;;5.50;5.10;;;;;;;16.51;100.00;97756.78;4969604;28;20220;-65
2022/08/06 08:22:47;;;;;;;4.50;4.30;;;;;;;16.57;100.00;97758.63;4919019;28;20243;-67
2022/08/06 08:25:18;;;;;;;5.30;4.90;;;;;;;16.60;100.00;97766.22;4966904;28;20288;-66
2022/08/06 08:28:07;;;;;;;4.83;4.53;;;;;;;16.82;100.00;97768.63;4968443;28;20250;-66
2022/08/06 08:30:40;;;;;;;5.13;4.93;;;;;;;16.84;100.00;97778.09;4952054;28;20237;-68
2022/08/06 08:33:09;;;;;;;5.70;5.20;;;;;;;16.83;100.00;97775.63;4966843;28;20320;-66
2022/08/06 08:35:43;;;;;;;5.47;5.03;;;;;;;16.97;100.00;97793.31;4955635;28;20872;-68
2022/08/06 08:38:27;;;;;;;5.17;4.77;;;;;;;16.82;100.00;97790.88;4910609;28;20218;-68
2022/08/06 08:40:57;;;;;;;5.60;5.23;;;;;;;16.79;100.00;97796.66;4967722;28;20210;-67
2022/08/06 08:43:35;;;;;;;5.50;5.10;;;;;;;16.92;100.00;97791.25;4963607;28;20198;-67
2022/08/06 08:46:24;;;;;;;4.77;4.37;;;;;;;17.06;100.00;97799.28;4953022;28;20229;-66
2022/08/06 08:48:59;;;;;;;5.00;4.70;;;;;;;17.22;100.00;97811.38;4969039;28;20220;-68
2022/08/06 08:51:29;;;;;;;6.17;5.77;;;;;;;17.05;100.00;97806.50;4951564;28;20777;-65
2022/08/06 08:54:10;;;;;;;5.53;5.00;;;;;;;16.81;100.00;97801.78;4923192;28;20229;-66
2022/08/06 08:56:45;;;;;;;5.23;4.70;;;;;;;16.95;100.00;97805.25;4964939;28;20216;-67
2022/08/06 08:59:33;;;;;;;5.00;4.60;;;;;;;16.72;100.00;97811.91;4965500;28;20210;-68
2022/08/06 09:02:23;;;;;;;4.83;4.50;;;;;;;16.49;100.00;97810.47;4964617;28;20218;-65
2022/08/06 09:04:52;;;;;;;5.07;4.73;;;;;;;16.48;100.00;97812.34;4954000;28;20222;-66
2022/08/06 09:07:21;;;;;;;4.60;4.40;;;;;;;16.56;100.00;97824.66;4951938;28;20473;-68
2022/08/06 09:09:52;;;;;;;4.50;4.20;;;;;;;16.58;100.00;97817.25;4924387;28;20406;-68
2022/08/06 09:12:28;;;;;;;4.97;4.67;;;;;;;16.77;100.00;97815.56;4962478;28;20444;-68
2022/08/06 09:15:03;;;;;;;4.60;4.30;;;;;;;16.66;100.00;97810.88;4968877;28;20231;-66
2022/08/06 09:17:31;;;;;;;4.40;4.10;;;;;;;16.82;100.00;97811.44;4966332;28;20316;-68
2022/08/06 09:20:19;;;;;;;4.77;4.43;;;;;;;17.21;100.00;97810.56;4947369;28;20511;-67
2022/08/06 09:22:50;;;;;;;4.07;3.77;;;;;;;17.33;100.00;97810.72;4968062;28;20201;-68
2022/08/06 09:25:39;;;;;;;4.20;3.90;;;;;;;17.24;100.00;97814.69;4921597;28;20456;-68
2022/08/06 09:28:29;;;;;;;4.03;3.83;;;;;;;17.48;100.00;97814.97;4964941;28;21066;-67
2022/08/06 09:30:59;;;;;;;4.10;3.90;;;;;;;17.83;100.00;97811.91;4969650;28;20718;-66
2022/08/06 09:33:28;;;;;;;3.90;3.70;;;;;;;18.00;100.00;97812.22;4965320;28;20671;-66
2022/08/06 09:36:16;;;;;;;4.17;3.80;;;;;;;18.60;100.00;97800.25;4953464;28;20240;-64
2022/08/06 09:39:00;;;;;;;5.50;3.93;;;;;;;18.50;100.00;97811.47;4965108;28;20750;-69
2022/08/06 09:41:31;;;;;;;3.67;3.47;;;;;;;18.40;100.00;97805.78;4923528;28;20233;-67
2022/08/06 09:43:59;;;;;;;4.20;3.90;;;;;;;18.55;100.00;97807.31;4966656;28;20274;-65
2022/08/06 09:46:40;;;;;;;4.87;4.10;;;;;;;18.41;100.00;97804.75;4964867;28;20530;-66
2022/08/06 09:49:10;;;;;;;3.63;3.37;;;;;;;18.75;100.00;97802.56;4966963;28;20270;-64
2022/08/06 09:52:15;;;;;;;3.80;3.60;;;;;;;19.60;100.00;97808.25;4932387;28;20723;-66
2022/08/06 09:54:46;;;;;;;3.87;3.67;;;;;;;19.86;100.00;97806.22;4951201;28;20225;-64
2022/08/06 09:57:22;;;;;;;3.47;3.20;;;;;;;20.41;100.00;97803.56;4910302;28;20718;-64
2022/08/06 10:00:05;;;;;;;3.77;3.47;;;;;;;20.47;100.00;97806.16;4965819;28;20468;-66
2022/08/06 10:02:42;;;;;;;4.20;3.90;;;;;;;20.02;100.00;97807.47;4964118;28;20394;-62
2022/08/06 10:05:19;;;;;;;3.40;3.20;;;;;;;21.04;100.00;97810.16;4965794;28;20280;-65
2022/08/06 10:08:03;;;;;;;3.80;3.60;;;;;;;20.90;100.00;97804.19;4945905;28;22392;-64
2022/08/06 10:10:51;;;;;;;4.00;3.30;;;;;;;21.28;100.00;97803.91;4966087;28;20252;-63
2022/08/06 10:13:23;;;;;;;3.80;3.60;;;;;;;21.54;100.00;97802.53;4923594;28;20242;-65
2022/08/06 10:15:54;;;;;;;3.80;3.60;;;;;;;21.32;100.00;97796.97;4966708;28;20447;-66
2022/08/06 10:18:35;;;;;;;3.23;3.03;;;;;;;21.50;100.00;97798.66;4966415;28;20790;-64
2022/08/06 10:21:26;;;;;;;2.67;2.57;;;;;;;21.05;100.00;97797.50;4965365;28;20209;-63
2022/08/06 10:24:13;;;;;;;3.67;3.47;;;;;;;19.97;100.00;97801.16;4951050;28;20233;-66
2022/08/06 10:26:54;;;;;;;3.20;3.00;;;;;;;20.22;100.00;97804.47;4907245;28;22070;-67
2022/08/06 10:29:22;;;;;;;4.27;3.60;;;;;;;19.88;100.00;97797.94;4941511;28;20276;-66
2022/08/06 10:31:54;;;;;;;3.10;3.00;;;;;;;19.58;100.00;97801.44;4910543;28;20276;-65
2022/08/06 10:34:25;;;;;;;4.43;4.13;;;;;;;19.19;100.00;97799.84;4966391;28;20290;-67
2022/08/06 10:37:02;;;;;;;3.80;3.57;;;;;;;19.14;100.00;97797.03;4949168;28;20217;-66
2022/08/06 10:39:53;;;;;;;4.13;3.80;;;;;;;19.68;100.00;97793.66;4946387;28;20594;-66
2022/08/06 10:42:39;;;;;;;3.53;3.23;;;;;;;20.10;100.00;97801.78;4948215;28;20275;-67
2022/08/06 10:45:11;;;;;;;3.97;3.73;;;;;;;20.00;100.00;97800.69;4939097;28;20225;-61
2022/08/06 10:47:45;;;;;;;3.47;3.27;;;;;;;20.10;100.00;97801.78;4965668;28;20206;-65
2022/08/06 10:50:34;;;;;;;4.03;3.83;;;;;;;19.87;100.00;97794.41;4966416;28;20312;-66
2022/08/06 10:53:16;;;;;;;3.80;3.60;;;;;;;19.93;100.00;97801.63;4965818;28;20226;-64
2022/08/06 10:56:06;;;;;;;3.53;3.43;;;;;;;20.19;100.00;97802.25;4966926;28;20229;-63
2022/08/06 10:58:38;;;;;;;3.70;3.50;;;;;;;20.19;100.00;97798.75;4950626;28;20554;-66
2022/08/06 11:01:09;;;;;;;3.70;3.50;;;;;;;20.27;100.00;97806.47;4918166;28;20987;-65
2022/08/06 11:03:51;;;;;;;4.60;4.30;;;;;;;20.36;100.00;97802.38;4966513;28;21306;-66
2022/08/06 11:06:37;;;;;;;4.10;3.80;;;;;;;20.62;100.00;97800.31;4962939;28;20230;-67
2022/08/06 11:09:20;;;;;;;4.10;3.90;;;;;;;20.49;100.00;97803.25;4965003;28;20217;-65
2022/08/06 11:12:23;;;;;;;4.33;4.03;;;;;;;20.32;100.00;97803.91;4969015;28;20284;-66
2022/08/06 11:14:53;;;;;;;3.47;3.23;;;;;;;20.31;100.00;97804.16;4956418;28;20279;-68
2022/08/06 11:17:21;;;;;;;3.90;3.70;;;;;;;20.33;100.00;97802.06;4924914;28;20281;-68
2022/08/06 11:19:54;;;;;;;3.67;3.47;;;;;;;20.42;100.00;97797.13;4969753;28;20214;-67
2022/08/06 11:22:36;;;;;;;3.77;3.57;;;;;;;20.41;100.00;97795.47;4965716;28;20491;-68
2022/08/06 11:25:08;;;;;;;3.93;3.63;;;;;;;20.74;100.00;97786.84;4970148;28;20304;-65
2022/08/06 11:27:56;;;;;;;3.93;3.73;;;;;;;20.48;100.00;97791.63;4969146;28;20210;-65
2022/08/06 11:30:42;;;;;;;4.13;3.93;;;;;;;20.92;100.00;97791.31;4959771;28;20884;-68
2022/08/06 11:33:16;;;;;;;4.43;4.20;;;;;;;20.88;100.00;97784.75;4904396;28;20717;-65
2022/08/06 11:35:48;;;;;;;4.27;4.03;;;;;;;21.18;100.00;97778.34;4972430;28;20221;-67
2022/08/06 11:39:00;;;;;;;4.77;4.37;;;;;;;21.36;99.31;97777.38;4968065;28;20518;-67
2022/08/06 11:41:47;;;;;;;4.10;3.90;;;;;;;21.53;95.50;97780.13;4969965;28;20212;-66
2022/08/06 11:44:26;;;;;;;4.57;4.10;;;;;;;21.58;95.82;97776.72;4951656;28;20439;-67
2022/08/06 11:47:16;;;;;;;3.10;2.90;;;;;;;21.37;80.46;97770.13;4926163;28;20221;-68
2022/08/06 11:50:00;;;;;;;3.17;2.97;;;;;;;21.76;89.81;97766.81;4967545;28;20205;-66
2022/08/06 11:52:42;;;;;;;5.50;3.57;;;;;;;22.24;91.84;97770.88;4946016;28;20427;-67
2022/08/06 11:55:13;;;;;;;3.60;3.30;;;;;;;21.98;96.74;97769.66;4965287;28;20229;-63
2022/08/06 11:58:07;;;;;;;2.97;2.77;;;;;;;21.93;85.47;97772.22;4965499;28;20216;-66
2022/08/06 12:00:56;;;;;;;4.53;2.60;;;;;;;21.73;82.34;97764.59;4956389;28;20862;-66
2022/08/06 12:03:39;;;;;;;3.37;3.07;;;;;;;21.48;86.11;97760.34;4910454;28;20248;-67
2022/08/06 12:06:20;;;;;;;3.60;3.30;;;;;;;21.95;86.31;97767.41;4947542;28;20225;-65
2022/08/06 12:09:10;;;;;;;3.40;3.20;;;;;;;22.54;87.03;97756.25;4970173;28;20217;-68
2022/08/06 12:12:34;;;;;;;2.97;2.87;;;;;;;22.82;82.03;97759.84;4952386;28;20235;-64
2022/08/06 12:15:42;;;;;;;3.10;2.90;;;;;;;23.03;67.50;97756.59;4954247;28;20228;-65
2022/08/06 12:18:38;;;;;;;3.10;2.80;;;;;;;22.84;76.48;97757.72;4924893;28;20325;-68